map of THS home
THS - Airport
Location
City:  Sukhothai, Sukhothai, Thailand
ICAO:VTPO
IATA:THS

Details
Type:Airport (Aerodrome, Airfield)
Latitude:1714'17"N (17.237992)
Longitude:9949'05"E (99.818183)
Datum:WGS 1984
Elevation:179 ft (55 m)
Variation:0.71W (WMM2015 magnetic declination)
0.01 annual change
Runways:1
Longest:6890 × 148 ft (2100 × 45 m), paved

Time
Time Zone:UTC+7
Local Time:

Weather
METAR:VTPO 210900Z VRB02KT 6000 FEW025 31/19 Q1011 NOSIG
TAF:VTPO 210500Z 2106/2206 06005KT 9999 FEW030
BECMG 2121/2123 4000 BR
BECMG 2201/2203 9999 NSW

Related Locations
Nearby:
Farthest:SJA: 12087 mi / 19452 km
San Juan de Marcona [San Juan de Marcona Airport], ICA, PE

Find:

   beyond  
but within

Other Information
Maps:
NOTAMs:
Links:
Sources:

  
  • flag of Thailand
  

Sectional Chart

Flight Planning
at skyvector.com

Satellite Image

Google Maps Satellite view

 

Copyright © 2004-2019 Karl L. Swartz. All rights reserved.
The Great Circle Mapper name and logo are trademarks of the Great Circle Mapper.
All other trademarks mentioned herein belong to their respective owners.
Please see credits for attibutions and further copyright information.

  Follow gcmap on Facebook Follow gcmap on Twitter Follow gcmap on Google+ GCmap on LinkedIn

hCard Microformat

Geo Microformat